Terminal Aerodrome Forecast
Issued by NWS

Home | Current Version | Previous Version | Text Only | Print | Product List | Glossary On
Versions: 1 2 3 4 5 6 7 8 9 10 11 12 13 14 15 16 17 18 19
000
FTUS42 TJSJ 292339
TAFJPS
TAF
TJPS 292339Z 3000/3024 10007KT P6SM VCSH FEW030 SCT060
      TEMPO 3008/3012 VRB12G20KT 5SM SHRA SCT025 BKN040
     FM301500 15010KT P6SM VCSH SCT025 BKN060
     FM302330 09007KT P6SM FEW030 SCT060
      AMD NOT SKED TIL 300300=

USA.gov is the U.S. government's official web portal to all federal, state and local government web resources and services.